sensor_id;sensor_type;location;lat;lon;timestamp;P1;durP1;ratioP1;P2;durP2;ratioP2
39956;SDS011;48483;44.640;7.494;2024-01-07T00:01:46;7.53;;;4.72;;
39956;SDS011;48483;44.640;7.494;2024-01-07T00:04:15;7.63;;;4.72;;
39956;SDS011;48483;44.640;7.494;2024-01-07T00:06:42;7.65;;;4.40;;
39956;SDS011;48483;44.640;7.494;2024-01-07T00:09:10;7.35;;;4.22;;
39956;SDS011;48483;44.640;7.494;2024-01-07T00:11:37;7.07;;;4.63;;
39956;SDS011;48483;44.640;7.494;2024-01-07T00:14:04;7.00;;;4.03;;
39956;SDS011;48483;44.640;7.494;2024-01-07T00:16:31;5.70;;;4.10;;
39956;SDS011;48483;44.640;7.494;2024-01-07T00:18:57;7.15;;;4.32;;
39956;SDS011;48483;44.640;7.494;2024-01-07T00:21:26;6.63;;;3.33;;
39956;SDS011;48483;44.640;7.494;2024-01-07T00:23:52;5.55;;;3.08;;
39956;SDS011;48483;44.640;7.494;2024-01-07T00:26:19;4.97;;;3.75;;
39956;SDS011;48483;44.640;7.494;2024-01-07T00:28:46;5.18;;;3.33;;
39956;SDS011;48483;44.640;7.494;2024-01-07T00:31:13;5.38;;;3.17;;
39956;SDS011;48483;44.640;7.494;2024-01-07T00:33:40;5.40;;;3.40;;
39956;SDS011;48483;44.640;7.494;2024-01-07T00:36:07;6.43;;;3.30;;
39956;SDS011;48483;44.640;7.494;2024-01-07T00:38:35;6.55;;;4.53;;
39956;SDS011;48483;44.640;7.494;2024-01-07T00:41:02;5.95;;;3.75;;
39956;SDS011;48483;44.640;7.494;2024-01-07T00:43:28;7.22;;;4.07;;
39956;SDS011;48483;44.640;7.494;2024-01-07T00:45:55;5.20;;;3.50;;
39956;SDS011;48483;44.640;7.494;2024-01-07T00:48:22;4.40;;;3.15;;
39956;SDS011;48483;44.640;7.494;2024-01-07T00:50:49;5.07;;;3.03;;
39956;SDS011;48483;44.640;7.494;2024-01-07T00:53:15;6.10;;;3.40;;
39956;SDS011;48483;44.640;7.494;2024-01-07T00:55:44;6.45;;;3.75;;
39956;SDS011;48483;44.640;7.494;2024-01-07T00:58:10;5.10;;;3.15;;
39956;SDS011;48483;44.640;7.494;2024-01-07T01:00:37;4.80;;;3.03;;
39956;SDS011;48483;44.640;7.494;2024-01-07T01:03:04;4.63;;;2.78;;
39956;SDS011;48483;44.640;7.494;2024-01-07T01:05:30;4.50;;;3.45;;
39956;SDS011;48483;44.640;7.494;2024-01-07T01:07:57;4.00;;;2.40;;
39956;SDS011;48483;44.640;7.494;2024-01-07T01:10:24;3.97;;;2.05;;
39956;SDS011;48483;44.640;7.494;2024-01-07T01:12:53;3.53;;;2.10;;
39956;SDS011;48483;44.640;7.494;2024-01-07T01:15:20;4.57;;;2.20;;
39956;SDS011;48483;44.640;7.494;2024-01-07T01:17:46;4.05;;;1.90;;
39956;SDS011;48483;44.640;7.494;2024-01-07T01:20:13;3.90;;;1.98;;
39956;SDS011;48483;44.640;7.494;2024-01-07T01:22:40;3.58;;;2.33;;
39956;SDS011;48483;44.640;7.494;2024-01-07T01:25:07;3.42;;;2.00;;
39956;SDS011;48483;44.640;7.494;2024-01-07T01:27:33;5.95;;;2.92;;
39956;SDS011;48483;44.640;7.494;2024-01-07T01:30:02;4.78;;;2.67;;
39956;SDS011;48483;44.640;7.494;2024-01-07T01:32:30;4.45;;;2.78;;
39956;SDS011;48483;44.640;7.494;2024-01-07T01:34:57;4.13;;;2.80;;
39956;SDS011;48483;44.640;7.494;2024-01-07T01:37:23;5.03;;;2.55;;
39956;SDS011;48483;44.640;7.494;2024-01-07T01:39:50;4.82;;;3.00;;
39956;SDS011;48483;44.640;7.494;2024-01-07T01:42:17;6.32;;;3.08;;
39956;SDS011;48483;44.640;7.494;2024-01-07T01:44:45;5.50;;;3.17;;
39956;SDS011;48483;44.640;7.494;2024-01-07T01:47:14;5.72;;;3.47;;
39956;SDS011;48483;44.640;7.494;2024-01-07T01:49:41;4.75;;;2.90;;
39956;SDS011;48483;44.640;7.494;2024-01-07T01:52:08;5.15;;;3.15;;
39956;SDS011;48483;44.640;7.494;2024-01-07T01:54:37;5.90;;;3.40;;
39956;SDS011;48483;44.640;7.494;2024-01-07T01:57:04;5.88;;;3.28;;
39956;SDS011;48483;44.640;7.494;2024-01-07T01:59:32;4.15;;;3.22;;
39956;SDS011;48483;44.640;7.494;2024-01-07T02:02:00;5.43;;;3.15;;
39956;SDS011;48483;44.640;7.494;2024-01-07T02:04:28;4.15;;;3.25;;
39956;SDS011;48483;44.640;7.494;2024-01-07T02:06:55;5.82;;;3.67;;
39956;SDS011;48483;44.640;7.494;2024-01-07T02:09:22;6.00;;;3.30;;
39956;SDS011;48483;44.640;7.494;2024-01-07T02:12:02;5.30;;;3.08;;
39956;SDS011;48483;44.640;7.494;2024-01-07T02:14:30;6.53;;;3.42;;
39956;SDS011;48483;44.640;7.494;2024-01-07T02:16:57;4.78;;;2.70;;
39956;SDS011;48483;44.640;7.494;2024-01-07T02:19:25;6.00;;;2.97;;
39956;SDS011;48483;44.640;7.494;2024-01-07T02:21:54;5.22;;;3.00;;
39956;SDS011;48483;44.640;7.494;2024-01-07T02:24:22;4.38;;;2.65;;
39956;SDS011;48483;44.640;7.494;2024-01-07T02:26:49;4.03;;;2.75;;
39956;SDS011;48483;44.640;7.494;2024-01-07T02:29:16;5.00;;;2.85;;
39956;SDS011;48483;44.640;7.494;2024-01-07T02:31:42;4.65;;;2.88;;
39956;SDS011;48483;44.640;7.494;2024-01-07T02:34:09;5.28;;;2.88;;
39956;SDS011;48483;44.640;7.494;2024-01-07T02:36:36;5.93;;;2.78;;
39956;SDS011;48483;44.640;7.494;2024-01-07T02:39:03;4.10;;;2.58;;
39956;SDS011;48483;44.640;7.494;2024-01-07T02:41:31;6.43;;;3.25;;
39956;SDS011;48483;44.640;7.494;2024-01-07T02:43:57;7.78;;;3.10;;
39956;SDS011;48483;44.640;7.494;2024-01-07T02:46:24;6.40;;;3.22;;
39956;SDS011;48483;44.640;7.494;2024-01-07T02:48:51;4.60;;;2.55;;
39956;SDS011;48483;44.640;7.494;2024-01-07T02:51:17;4.80;;;2.72;;
39956;SDS011;48483;44.640;7.494;2024-01-07T02:53:45;4.20;;;2.58;;
39956;SDS011;48483;44.640;7.494;2024-01-07T02:56:11;4.30;;;2.08;;
39956;SDS011;48483;44.640;7.494;2024-01-07T02:58:40;4.25;;;2.30;;
39956;SDS011;48483;44.640;7.494;2024-01-07T03:01:08;3.22;;;1.83;;
39956;SDS011;48483;44.640;7.494;2024-01-07T03:03:38;3.75;;;2.28;;
39956;SDS011;48483;44.640;7.494;2024-01-07T03:06:05;3.83;;;2.60;;
39956;SDS011;48483;44.640;7.494;2024-01-07T03:08:32;4.53;;;2.50;;
39956;SDS011;48483;44.640;7.494;2024-01-07T03:11:03;3.30;;;1.98;;
39956;SDS011;48483;44.640;7.494;2024-01-07T03:13:31;2.53;;;1.67;;
39956;SDS011;48483;44.640;7.494;2024-01-07T03:15:59;3.22;;;1.70;;
39956;SDS011;48483;44.640;7.494;2024-01-07T03:18:26;2.75;;;1.50;;
39956;SDS011;48483;44.640;7.494;2024-01-07T03:20:54;2.65;;;1.38;;
39956;SDS011;48483;44.640;7.494;2024-01-07T03:23:20;2.70;;;1.55;;
39956;SDS011;48483;44.640;7.494;2024-01-07T03:25:47;3.08;;;1.65;;
39956;SDS011;48483;44.640;7.494;2024-01-07T03:28:14;2.35;;;1.42;;
39956;SDS011;48483;44.640;7.494;2024-01-07T03:30:41;2.88;;;1.50;;
39956;SDS011;48483;44.640;7.494;2024-01-07T03:33:09;2.42;;;1.30;;
39956;SDS011;48483;44.640;7.494;2024-01-07T03:35:36;1.65;;;1.02;;
39956;SDS011;48483;44.640;7.494;2024-01-07T03:38:03;4.18;;;1.90;;
39956;SDS011;48483;44.640;7.494;2024-01-07T03:40:30;2.60;;;1.73;;
39956;SDS011;48483;44.640;7.494;2024-01-07T03:42:56;3.50;;;2.13;;
39956;SDS011;48483;44.640;7.494;2024-01-07T03:45:23;2.92;;;1.95;;
39956;SDS011;48483;44.640;7.494;2024-01-07T03:47:50;5.57;;;1.80;;
39956;SDS011;48483;44.640;7.494;2024-01-07T03:50:18;4.43;;;2.40;;
39956;SDS011;48483;44.640;7.494;2024-01-07T03:52:44;3.08;;;1.92;;
39956;SDS011;48483;44.640;7.494;2024-01-07T03:55:11;2.92;;;1.85;;
39956;SDS011;48483;44.640;7.494;2024-01-07T03:57:38;3.92;;;2.13;;
39956;SDS011;48483;44.640;7.494;2024-01-07T04:00:05;2.72;;;1.75;;
39956;SDS011;48483;44.640;7.494;2024-01-07T04:02:34;2.75;;;1.30;;
39956;SDS011;48483;44.640;7.494;2024-01-07T04:05:00;2.33;;;1.30;;
39956;SDS011;48483;44.640;7.494;2024-01-07T04:07:28;2.20;;;1.58;;
39956;SDS011;48483;44.640;7.494;2024-01-07T04:09:55;2.38;;;1.20;;
39956;SDS011;48483;44.640;7.494;2024-01-07T04:12:22;2.42;;;1.10;;
39956;SDS011;48483;44.640;7.494;2024-01-07T04:14:48;2.40;;;1.27;;
39956;SDS011;48483;44.640;7.494;2024-01-07T04:17:15;3.13;;;1.35;;
39956;SDS011;48483;44.640;7.494;2024-01-07T04:19:42;3.17;;;1.20;;
39956;SDS011;48483;44.640;7.494;2024-01-07T04:22:08;2.95;;;1.23;;
39956;SDS011;48483;44.640;7.494;2024-01-07T04:24:36;1.70;;;0.95;;
39956;SDS011;48483;44.640;7.494;2024-01-07T04:27:06;2.65;;;1.50;;
39956;SDS011;48483;44.640;7.494;2024-01-07T04:29:32;3.03;;;1.35;;
39956;SDS011;48483;44.640;7.494;2024-01-07T04:31:59;3.25;;;1.40;;
39956;SDS011;48483;44.640;7.494;2024-01-07T04:34:26;2.67;;;1.55;;
39956;SDS011;48483;44.640;7.494;2024-01-07T04:36:52;2.78;;;1.23;;
39956;SDS011;48483;44.640;7.494;2024-01-07T04:39:19;3.03;;;1.00;;
39956;SDS011;48483;44.640;7.494;2024-01-07T04:41:47;1.88;;;1.00;;
39956;SDS011;48483;44.640;7.494;2024-01-07T04:44:14;2.45;;;1.15;;
39956;SDS011;48483;44.640;7.494;2024-01-07T04:46:40;3.35;;;1.67;;
39956;SDS011;48483;44.640;7.494;2024-01-07T04:49:07;3.05;;;1.60;;
39956;SDS011;48483;44.640;7.494;2024-01-07T04:51:34;3.42;;;1.60;;
39956;SDS011;48483;44.640;7.494;2024-01-07T04:54:02;4.70;;;1.80;;
39956;SDS011;48483;44.640;7.494;2024-01-07T04:56:29;4.63;;;1.70;;
39956;SDS011;48483;44.640;7.494;2024-01-07T04:58:57;2.45;;;1.50;;
39956;SDS011;48483;44.640;7.494;2024-01-07T05:01:24;2.40;;;1.20;;
39956;SDS011;48483;44.640;7.494;2024-01-07T05:03:50;2.67;;;1.20;;
39956;SDS011;48483;44.640;7.494;2024-01-07T05:06:17;2.20;;;0.90;;
39956;SDS011;48483;44.640;7.494;2024-01-07T05:08:44;1.75;;;1.20;;
39956;SDS011;48483;44.640;7.494;2024-01-07T05:11:11;2.22;;;1.10;;
39956;SDS011;48483;44.640;7.494;2024-01-07T05:13:37;4.53;;;1.27;;
39956;SDS011;48483;44.640;7.494;2024-01-07T05:16:06;3.03;;;1.50;;
39956;SDS011;48483;44.640;7.494;2024-01-07T05:18:32;2.00;;;1.25;;
39956;SDS011;48483;44.640;7.494;2024-01-07T05:20:59;1.27;;;0.93;;
39956;SDS011;48483;44.640;7.494;2024-01-07T05:23:26;2.70;;;1.15;;
39956;SDS011;48483;44.640;7.494;2024-01-07T05:25:52;2.22;;;1.05;;
39956;SDS011;48483;44.640;7.494;2024-01-07T05:28:19;1.65;;;1.10;;
39956;SDS011;48483;44.640;7.494;2024-01-07T05:30:46;1.52;;;1.02;;
39956;SDS011;48483;44.640;7.494;2024-01-07T05:33:14;2.28;;;1.20;;
39956;SDS011;48483;44.640;7.494;2024-01-07T05:35:41;2.97;;;2.15;;
39956;SDS011;48483;44.640;7.494;2024-01-07T05:38:08;3.40;;;1.40;;
39956;SDS011;48483;44.640;7.494;2024-01-07T05:40:34;2.38;;;1.20;;
39956;SDS011;48483;44.640;7.494;2024-01-07T05:43:01;2.30;;;1.17;;
39956;SDS011;48483;44.640;7.494;2024-01-07T05:45:28;2.92;;;1.20;;
39956;SDS011;48483;44.640;7.494;2024-01-07T05:47:54;2.88;;;1.50;;
39956;SDS011;48483;44.640;7.494;2024-01-07T05:50:22;2.03;;;1.20;;
39956;SDS011;48483;44.640;7.494;2024-01-07T05:52:49;3.22;;;1.63;;
39956;SDS011;48483;44.640;7.494;2024-01-07T05:55:16;4.78;;;1.90;;
39956;SDS011;48483;44.640;7.494;2024-01-07T05:57:42;3.10;;;1.77;;
39956;SDS011;48483;44.640;7.494;2024-01-07T06:00:10;5.43;;;1.98;;
39956;SDS011;48483;44.640;7.494;2024-01-07T06:02:41;2.63;;;1.75;;
39956;SDS011;48483;44.640;7.494;2024-01-07T06:05:07;2.45;;;1.60;;
39956;SDS011;48483;44.640;7.494;2024-01-07T06:07:36;2.92;;;1.70;;
39956;SDS011;48483;44.640;7.494;2024-01-07T06:10:03;2.78;;;1.60;;
39956;SDS011;48483;44.640;7.494;2024-01-07T06:12:30;2.88;;;1.70;;
39956;SDS011;48483;44.640;7.494;2024-01-07T06:14:56;4.55;;;1.73;;
39956;SDS011;48483;44.640;7.494;2024-01-07T06:17:23;2.25;;;1.38;;
39956;SDS011;48483;44.640;7.494;2024-01-07T06:19:50;1.70;;;1.20;;
39956;SDS011;48483;44.640;7.494;2024-01-07T06:22:16;2.47;;;1.17;;
39956;SDS011;48483;44.640;7.494;2024-01-07T06:24:44;3.83;;;1.23;;
39956;SDS011;48483;44.640;7.494;2024-01-07T06:27:11;2.45;;;1.38;;
39956;SDS011;48483;44.640;7.494;2024-01-07T06:29:39;2.65;;;1.10;;
39956;SDS011;48483;44.640;7.494;2024-01-07T06:32:06;2.40;;;1.10;;
39956;SDS011;48483;44.640;7.494;2024-01-07T06:34:32;1.50;;;1.00;;
39956;SDS011;48483;44.640;7.494;2024-01-07T06:36:59;1.92;;;0.90;;
39956;SDS011;48483;44.640;7.494;2024-01-07T06:39:26;1.73;;;1.52;;
39956;SDS011;48483;44.640;7.494;2024-01-07T06:41:54;3.95;;;1.23;;
39956;SDS011;48483;44.640;7.494;2024-01-07T06:44:39;3.03;;;1.75;;
39956;SDS011;48483;44.640;7.494;2024-01-07T06:47:06;1.85;;;1.00;;
39956;SDS011;48483;44.640;7.494;2024-01-07T06:49:33;1.65;;;1.13;;
39956;SDS011;48483;44.640;7.494;2024-01-07T06:51:59;2.63;;;1.80;;
39956;SDS011;48483;44.640;7.494;2024-01-07T06:54:26;5.72;;;1.30;;
39956;SDS011;48483;44.640;7.494;2024-01-07T06:56:54;0.90;;;0.68;;
39956;SDS011;48483;44.640;7.494;2024-01-07T06:59:21;2.22;;;1.10;;
39956;SDS011;48483;44.640;7.494;2024-01-07T07:01:47;3.05;;;1.40;;
39956;SDS011;48483;44.640;7.494;2024-01-07T07:04:14;2.83;;;1.30;;
39956;SDS011;48483;44.640;7.494;2024-01-07T07:06:40;1.95;;;1.13;;
39956;SDS011;48483;44.640;7.494;2024-01-07T07:09:07;3.53;;;1.30;;
39956;SDS011;48483;44.640;7.494;2024-01-07T07:11:34;2.95;;;1.60;;
39956;SDS011;48483;44.640;7.494;2024-01-07T07:14:02;2.05;;;1.20;;
39956;SDS011;48483;44.640;7.494;2024-01-07T07:16:28;4.88;;;2.00;;
39956;SDS011;48483;44.640;7.494;2024-01-07T07:18:55;2.83;;;1.88;;
39956;SDS011;48483;44.640;7.494;2024-01-07T07:21:22;2.88;;;1.90;;
39956;SDS011;48483;44.640;7.494;2024-01-07T07:23:49;3.53;;;1.50;;
39956;SDS011;48483;44.640;7.494;2024-01-07T07:26:15;2.25;;;1.65;;
39956;SDS011;48483;44.640;7.494;2024-01-07T07:28:42;3.90;;;2.17;;
39956;SDS011;48483;44.640;7.494;2024-01-07T07:31:11;4.40;;;1.92;;
39956;SDS011;48483;44.640;7.494;2024-01-07T07:33:38;4.35;;;1.92;;
39956;SDS011;48483;44.640;7.494;2024-01-07T07:36:05;3.25;;;1.60;;
39956;SDS011;48483;44.640;7.494;2024-01-07T07:38:32;2.78;;;1.63;;
39956;SDS011;48483;44.640;7.494;2024-01-07T07:40:59;5.35;;;1.83;;
39956;SDS011;48483;44.640;7.494;2024-01-07T07:43:26;3.10;;;1.92;;
39956;SDS011;48483;44.640;7.494;2024-01-07T07:45:53;2.47;;;1.50;;
39956;SDS011;48483;44.640;7.494;2024-01-07T07:48:21;4.22;;;2.03;;
39956;SDS011;48483;44.640;7.494;2024-01-07T07:50:49;4.50;;;2.22;;
39956;SDS011;48483;44.640;7.494;2024-01-07T07:53:16;5.07;;;1.95;;
39956;SDS011;48483;44.640;7.494;2024-01-07T07:55:42;8.65;;;2.50;;
39956;SDS011;48483;44.640;7.494;2024-01-07T07:58:09;5.03;;;2.47;;
39956;SDS011;48483;44.640;7.494;2024-01-07T08:00:36;2.67;;;1.60;;
39956;SDS011;48483;44.640;7.494;2024-01-07T08:03:02;3.78;;;2.58;;
39956;SDS011;48483;44.640;7.494;2024-01-07T08:05:31;3.47;;;1.63;;
39956;SDS011;48483;44.640;7.494;2024-01-07T08:07:58;3.40;;;1.70;;
39956;SDS011;48483;44.640;7.494;2024-01-07T08:10:24;3.70;;;2.03;;
39956;SDS011;48483;44.640;7.494;2024-01-07T08:12:51;3.45;;;1.98;;
39956;SDS011;48483;44.640;7.494;2024-01-07T08:15:18;3.70;;;1.77;;
39956;SDS011;48483;44.640;7.494;2024-01-07T08:17:44;4.47;;;1.88;;
39956;SDS011;48483;44.640;7.494;2024-01-07T08:20:11;3.25;;;1.95;;
39956;SDS011;48483;44.640;7.494;2024-01-07T08:22:40;4.18;;;2.60;;
39956;SDS011;48483;44.640;7.494;2024-01-07T08:25:07;4.22;;;2.13;;
39956;SDS011;48483;44.640;7.494;2024-01-07T08:27:34;2.63;;;1.67;;
39956;SDS011;48483;44.640;7.494;2024-01-07T08:30:03;8.93;;;3.65;;
39956;SDS011;48483;44.640;7.494;2024-01-07T08:32:30;6.95;;;3.53;;
39956;SDS011;48483;44.640;7.494;2024-01-07T08:34:57;8.05;;;3.80;;
39956;SDS011;48483;44.640;7.494;2024-01-07T08:37:24;5.28;;;2.88;;
39956;SDS011;48483;44.640;7.494;2024-01-07T08:39:52;9.02;;;3.63;;
39956;SDS011;48483;44.640;7.494;2024-01-07T08:42:20;5.05;;;2.85;;
39956;SDS011;48483;44.640;7.494;2024-01-07T08:44:46;4.35;;;2.47;;
39956;SDS011;48483;44.640;7.494;2024-01-07T08:47:13;7.00;;;2.75;;
39956;SDS011;48483;44.640;7.494;2024-01-07T08:49:40;5.35;;;2.97;;
39956;SDS011;48483;44.640;7.494;2024-01-07T08:52:07;3.22;;;2.38;;
39956;SDS011;48483;44.640;7.494;2024-01-07T08:54:34;4.78;;;2.83;;
39956;SDS011;48483;44.640;7.494;2024-01-07T08:57:02;6.00;;;2.90;;
39956;SDS011;48483;44.640;7.494;2024-01-07T08:59:29;5.70;;;2.80;;
39956;SDS011;48483;44.640;7.494;2024-01-07T09:01:57;5.13;;;2.53;;
39956;SDS011;48483;44.640;7.494;2024-01-07T09:04:23;3.75;;;2.33;;
39956;SDS011;48483;44.640;7.494;2024-01-07T09:06:50;5.65;;;3.00;;
39956;SDS011;48483;44.640;7.494;2024-01-07T09:09:17;3.22;;;2.33;;
39956;SDS011;48483;44.640;7.494;2024-01-07T09:11:43;5.95;;;3.20;;
39956;SDS011;48483;44.640;7.494;2024-01-07T09:14:11;5.75;;;3.20;;
39956;SDS011;48483;44.640;7.494;2024-01-07T09:16:40;3.47;;;2.10;;
39956;SDS011;48483;44.640;7.494;2024-01-07T09:19:07;5.07;;;2.55;;
39956;SDS011;48483;44.640;7.494;2024-01-07T09:21:33;6.68;;;2.78;;
39956;SDS011;48483;44.640;7.494;2024-01-07T09:24:00;6.55;;;3.10;;
39956;SDS011;48483;44.640;7.494;2024-01-07T09:26:26;5.53;;;2.85;;
39956;SDS011;48483;44.640;7.494;2024-01-07T09:28:54;7.18;;;3.45;;
39956;SDS011;48483;44.640;7.494;2024-01-07T09:31:22;5.97;;;3.22;;
39956;SDS011;48483;44.640;7.494;2024-01-07T09:33:49;4.63;;;2.83;;
39956;SDS011;48483;44.640;7.494;2024-01-07T09:36:15;5.03;;;3.20;;
39956;SDS011;48483;44.640;7.494;2024-01-07T09:38:42;5.25;;;3.00;;
39956;SDS011;48483;44.640;7.494;2024-01-07T09:41:09;3.90;;;2.85;;
39956;SDS011;48483;44.640;7.494;2024-01-07T09:43:36;4.10;;;2.40;;
39956;SDS011;48483;44.640;7.494;2024-01-07T09:46:02;3.42;;;1.95;;
39956;SDS011;48483;44.640;7.494;2024-01-07T09:48:31;3.50;;;2.08;;
39956;SDS011;48483;44.640;7.494;2024-01-07T09:51:00;4.28;;;2.65;;
39956;SDS011;48483;44.640;7.494;2024-01-07T09:53:29;3.53;;;2.03;;
39956;SDS011;48483;44.640;7.494;2024-01-07T09:56:00;3.67;;;1.98;;
39956;SDS011;48483;44.640;7.494;2024-01-07T09:58:32;4.07;;;1.45;;
39956;SDS011;48483;44.640;7.494;2024-01-07T10:00:59;3.00;;;1.88;;
39956;SDS011;48483;44.640;7.494;2024-01-07T10:03:26;3.97;;;2.30;;
39956;SDS011;48483;44.640;7.494;2024-01-07T10:05:54;6.97;;;2.20;;
39956;SDS011;48483;44.640;7.494;2024-01-07T10:08:20;4.53;;;2.10;;
39956;SDS011;48483;44.640;7.494;2024-01-07T10:10:48;6.68;;;3.10;;
39956;SDS011;48483;44.640;7.494;2024-01-07T10:13:15;6.57;;;3.13;;
39956;SDS011;48483;44.640;7.494;2024-01-07T10:15:41;5.25;;;2.60;;
39956;SDS011;48483;44.640;7.494;2024-01-07T10:18:08;4.50;;;2.10;;
39956;SDS011;48483;44.640;7.494;2024-01-07T10:20:35;7.20;;;4.05;;
39956;SDS011;48483;44.640;7.494;2024-01-07T10:23:03;7.53;;;5.05;;
39956;SDS011;48483;44.640;7.494;2024-01-07T10:25:30;8.85;;;5.75;;
39956;SDS011;48483;44.640;7.494;2024-01-07T10:27:59;9.73;;;5.75;;
39956;SDS011;48483;44.640;7.494;2024-01-07T10:30:26;12.13;;;7.30;;
39956;SDS011;48483;44.640;7.494;2024-01-07T10:32:55;10.35;;;4.95;;
39956;SDS011;48483;44.640;7.494;2024-01-07T10:35:24;8.65;;;6.03;;
39956;SDS011;48483;44.640;7.494;2024-01-07T10:37:59;8.00;;;5.38;;
39956;SDS011;48483;44.640;7.494;2024-01-07T10:40:27;7.93;;;4.82;;
39956;SDS011;48483;44.640;7.494;2024-01-07T10:42:56;8.02;;;4.47;;
39956;SDS011;48483;44.640;7.494;2024-01-07T10:45:24;6.85;;;4.28;;
39956;SDS011;48483;44.640;7.494;2024-01-07T10:47:53;6.70;;;3.97;;
39956;SDS011;48483;44.640;7.494;2024-01-07T10:50:21;6.10;;;3.92;;
39956;SDS011;48483;44.640;7.494;2024-01-07T10:52:49;11.82;;;5.10;;
39956;SDS011;48483;44.640;7.494;2024-01-07T10:55:17;8.20;;;5.82;;
39956;SDS011;48483;44.640;7.494;2024-01-07T10:57:46;7.03;;;4.53;;
39956;SDS011;48483;44.640;7.494;2024-01-07T11:00:14;6.90;;;4.63;;
39956;SDS011;48483;44.640;7.494;2024-01-07T11:02:51;9.23;;;4.28;;
39956;SDS011;48483;44.640;7.494;2024-01-07T11:05:28;7.07;;;4.53;;
39956;SDS011;48483;44.640;7.494;2024-01-07T11:08:02;9.73;;;4.57;;
39956;SDS011;48483;44.640;7.494;2024-01-07T11:10:37;6.82;;;3.88;;
39956;SDS011;48483;44.640;7.494;2024-01-07T11:13:10;7.22;;;3.60;;
39956;SDS011;48483;44.640;7.494;2024-01-07T11:15:57;7.50;;;4.32;;
39956;SDS011;48483;44.640;7.494;2024-01-07T11:18:32;9.60;;;4.18;;
39956;SDS011;48483;44.640;7.494;2024-01-07T11:20:59;6.07;;;4.00;;
39956;SDS011;48483;44.640;7.494;2024-01-07T11:23:27;8.10;;;4.70;;
39956;SDS011;48483;44.640;7.494;2024-01-07T11:26:07;8.47;;;3.97;;
39956;SDS011;48483;44.640;7.494;2024-01-07T11:28:42;6.45;;;4.35;;
39956;SDS011;48483;44.640;7.494;2024-01-07T11:31:09;7.50;;;4.40;;
39956;SDS011;48483;44.640;7.494;2024-01-07T11:33:38;7.18;;;4.70;;
39956;SDS011;48483;44.640;7.494;2024-01-07T11:36:05;6.55;;;4.28;;
39956;SDS011;48483;44.640;7.494;2024-01-07T11:38:33;8.98;;;4.82;;
39956;SDS011;48483;44.640;7.494;2024-01-07T11:41:00;5.93;;;4.35;;
39956;SDS011;48483;44.640;7.494;2024-01-07T11:43:29;4.78;;;3.60;;
39956;SDS011;48483;44.640;7.494;2024-01-07T11:45:56;6.70;;;3.40;;
39956;SDS011;48483;44.640;7.494;2024-01-07T11:48:22;6.63;;;4.10;;
39956;SDS011;48483;44.640;7.494;2024-01-07T11:50:50;7.13;;;4.68;;
39956;SDS011;48483;44.640;7.494;2024-01-07T11:53:17;7.35;;;4.35;;
39956;SDS011;48483;44.640;7.494;2024-01-07T11:55:44;4.93;;;3.50;;
39956;SDS011;48483;44.640;7.494;2024-01-07T11:58:11;5.53;;;3.15;;
39956;SDS011;48483;44.640;7.494;2024-01-07T12:00:38;6.20;;;3.55;;
39956;SDS011;48483;44.640;7.494;2024-01-07T12:03:04;6.38;;;2.90;;
39956;SDS011;48483;44.640;7.494;2024-01-07T12:05:31;4.85;;;3.47;;
39956;SDS011;48483;44.640;7.494;2024-01-07T12:07:59;5.07;;;3.05;;
39956;SDS011;48483;44.640;7.494;2024-01-07T12:10:26;12.30;;;5.20;;
39956;SDS011;48483;44.640;7.494;2024-01-07T12:12:53;6.57;;;3.35;;
39956;SDS011;48483;44.640;7.494;2024-01-07T12:15:20;4.72;;;2.92;;
39956;SDS011;48483;44.640;7.494;2024-01-07T12:17:55;7.00;;;4.13;;
39956;SDS011;48483;44.640;7.494;2024-01-07T12:20:23;7.55;;;3.15;;
39956;SDS011;48483;44.640;7.494;2024-01-07T12:22:50;5.85;;;3.60;;
39956;SDS011;48483;44.640;7.494;2024-01-07T12:25:22;4.82;;;2.95;;
39956;SDS011;48483;44.640;7.494;2024-01-07T12:27:50;3.45;;;2.42;;
39956;SDS011;48483;44.640;7.494;2024-01-07T12:30:19;3.60;;;2.40;;
39956;SDS011;48483;44.640;7.494;2024-01-07T12:32:46;3.58;;;2.33;;
39956;SDS011;48483;44.640;7.494;2024-01-07T12:35:13;4.47;;;2.10;;
39956;SDS011;48483;44.640;7.494;2024-01-07T12:37:39;3.90;;;2.30;;
39956;SDS011;48483;44.640;7.494;2024-01-07T12:40:08;3.45;;;1.98;;
39956;SDS011;48483;44.640;7.494;2024-01-07T12:42:38;3.53;;;2.40;;
39956;SDS011;48483;44.640;7.494;2024-01-07T12:45:10;3.75;;;2.28;;
39956;SDS011;48483;44.640;7.494;2024-01-07T12:47:39;2.80;;;1.75;;
39956;SDS011;48483;44.640;7.494;2024-01-07T12:50:06;3.75;;;2.15;;
39956;SDS011;48483;44.640;7.494;2024-01-07T12:52:34;3.28;;;2.00;;
39956;SDS011;48483;44.640;7.494;2024-01-07T12:55:02;3.42;;;2.08;;
39956;SDS011;48483;44.640;7.494;2024-01-07T12:57:29;4.40;;;1.77;;
39956;SDS011;48483;44.640;7.494;2024-01-07T12:59:56;4.75;;;1.85;;
39956;SDS011;48483;44.640;7.494;2024-01-07T13:02:23;3.22;;;2.00;;
39956;SDS011;48483;44.640;7.494;2024-01-07T13:04:50;4.57;;;1.83;;
39956;SDS011;48483;44.640;7.494;2024-01-07T13:07:17;6.53;;;2.35;;
39956;SDS011;48483;44.640;7.494;2024-01-07T13:09:43;2.42;;;1.02;;
39956;SDS011;48483;44.640;7.494;2024-01-07T13:12:10;1.27;;;0.88;;
39956;SDS011;48483;44.640;7.494;2024-01-07T13:14:37;2.10;;;1.00;;
39956;SDS011;48483;44.640;7.494;2024-01-07T13:17:05;1.98;;;0.70;;
39956;SDS011;48483;44.640;7.494;2024-01-07T13:19:32;2.90;;;0.98;;
39956;SDS011;48483;44.640;7.494;2024-01-07T13:21:58;1.17;;;0.70;;
39956;SDS011;48483;44.640;7.494;2024-01-07T13:24:27;2.95;;;0.80;;
39956;SDS011;48483;44.640;7.494;2024-01-07T13:26:53;1.98;;;0.60;;
39956;SDS011;48483;44.640;7.494;2024-01-07T13:29:20;2.03;;;0.90;;
39956;SDS011;48483;44.640;7.494;2024-01-07T13:31:47;2.35;;;0.80;;
39956;SDS011;48483;44.640;7.494;2024-01-07T13:34:15;3.53;;;1.08;;
39956;SDS011;48483;44.640;7.494;2024-01-07T13:36:41;1.70;;;1.08;;
39956;SDS011;48483;44.640;7.494;2024-01-07T13:39:09;0.98;;;0.70;;
39956;SDS011;48483;44.640;7.494;2024-01-07T13:41:36;1.55;;;0.85;;
39956;SDS011;48483;44.640;7.494;2024-01-07T13:44:03;3.40;;;0.90;;
39956;SDS011;48483;44.640;7.494;2024-01-07T13:46:30;1.95;;;0.60;;
39956;SDS011;48483;44.640;7.494;2024-01-07T13:48:57;1.27;;;0.50;;
39956;SDS011;48483;44.640;7.494;2024-01-07T13:51:25;1.55;;;0.70;;
39956;SDS011;48483;44.640;7.494;2024-01-07T13:53:52;2.25;;;0.70;;
39956;SDS011;48483;44.640;7.494;2024-01-07T13:56:18;2.47;;;1.05;;
39956;SDS011;48483;44.640;7.494;2024-01-07T13:58:45;4.80;;;1.05;;
39956;SDS011;48483;44.640;7.494;2024-01-07T14:01:13;2.53;;;0.90;;
39956;SDS011;48483;44.640;7.494;2024-01-07T14:03:41;2.75;;;1.40;;
39956;SDS011;48483;44.640;7.494;2024-01-07T14:06:08;3.47;;;1.60;;
39956;SDS011;48483;44.640;7.494;2024-01-07T14:08:36;3.08;;;1.33;;
39956;SDS011;48483;44.640;7.494;2024-01-07T14:11:03;2.38;;;0.90;;
39956;SDS011;48483;44.640;7.494;2024-01-07T14:13:30;3.17;;;1.10;;
39956;SDS011;48483;44.640;7.494;2024-01-07T14:15:57;1.60;;;1.08;;
39956;SDS011;48483;44.640;7.494;2024-01-07T14:18:23;4.50;;;1.17;;
39956;SDS011;48483;44.640;7.494;2024-01-07T14:20:51;5.75;;;3.30;;
39956;SDS011;48483;44.640;7.494;2024-01-07T14:23:17;7.05;;;4.47;;
39956;SDS011;48483;44.640;7.494;2024-01-07T14:25:45;6.50;;;4.70;;
39956;SDS011;48483;44.640;7.494;2024-01-07T14:28:12;7.25;;;4.57;;
39956;SDS011;48483;44.640;7.494;2024-01-07T14:30:38;7.15;;;4.75;;
39956;SDS011;48483;44.640;7.494;2024-01-07T14:33:05;6.25;;;4.40;;
39956;SDS011;48483;44.640;7.494;2024-01-07T14:35:32;6.50;;;4.20;;
39956;SDS011;48483;44.640;7.494;2024-01-07T14:37:59;9.93;;;4.03;;
39956;SDS011;48483;44.640;7.494;2024-01-07T14:40:26;7.00;;;3.75;;
39956;SDS011;48483;44.640;7.494;2024-01-07T14:42:54;5.68;;;3.42;;
39956;SDS011;48483;44.640;7.494;2024-01-07T14:45:23;3.35;;;2.40;;
39956;SDS011;48483;44.640;7.494;2024-01-07T14:47:51;11.63;;;4.43;;
39956;SDS011;48483;44.640;7.494;2024-01-07T14:50:19;2.85;;;2.10;;